Terminal Aerodrome Forecast
Issued by NWS Wilmington, NC

Home | Current Version | Previous Version | Text Only | Print | Product List | Glossary On
Versions: 1 2 3 4 5 6 7 8 9 10 11 12 13 14 15 16 17 18 19 20
000
FTUS42 KILM 180520
TAFLBT
TAF
KLBT 180520Z 1806/1906 00000KT 4SM -SHRA BR SCT020 OVC070
      TEMPO 1808/1812 3SM -SHRA BR SCT005 SCT020 OVC070
     FM181300 04004KT 6SM BR HZ VCSH BKN015
     FM182100 08004KT P6SM VCSH SCT025 BKN045
     FM190200 05003KT P6SM BKN090=

USA.gov is the U.S. government's official web portal to all federal, state and local government web resources and services.